Time;durP1;ratioP1;P1;durP2;ratioP2;P2;SDS_P1;SDS_P2;PMS_P1;PMS_P2;Temp;Humidity;BMP_temperature;BMP_pressure;BME280_temperature;BME280_humidity;BME280_pressure;Samples;Min_cycle;Max_cycle;Signal;HPM_P1;HPM_P2
2020/12/20 00:02:28;;;;;;;8.68;6.55;;;20.30;44.00;;;;;;6267346;28;20427;-64
2020/12/20 00:05:29;;;;;;;9.23;7.05;;;20.30;43.30;;;;;;6269634;28;20394;-64
2020/12/20 00:08:30;;;;;;;9.20;6.47;;;20.30;43.40;;;;;;6273903;28;20494;-64
2020/12/20 00:11:30;;;;;;;9.27;6.80;;;20.30;43.40;;;;;;6275407;28;20186;-64
2020/12/20 00:14:31;;;;;;;8.75;6.53;;;20.30;43.40;;;;;;6275780;28;20052;-65
2020/12/20 00:17:31;;;;;;;8.20;6.10;;;20.30;43.40;;;;;;6275469;28;20025;-65
2020/12/20 00:20:32;;;;;;;8.85;6.18;;;20.30;43.50;;;;;;6275542;28;20225;-64
2020/12/20 00:23:32;;;;;;;8.75;6.47;;;20.30;43.40;;;;;;6275678;28;20052;-64
2020/12/20 00:26:33;;;;;;;9.85;6.28;;;20.30;43.50;;;;;;6282963;28;20025;-64
2020/12/20 00:29:34;;;;;;;8.60;6.40;;;20.30;43.40;;;;;;6283455;28;20025;-64
2020/12/20 00:32:35;;;;;;;7.30;5.88;;;20.30;43.50;;;;;;6275974;28;20025;-65
2020/12/20 00:35:36;;;;;;;7.70;6.10;;;20.30;43.50;;;;;;6275318;28;20028;-64
2020/12/20 00:38:36;;;;;;;7.80;6.07;;;20.30;43.50;;;;;;6275219;28;20379;-64
2020/12/20 00:41:37;;;;;;;8.63;6.32;;;20.30;43.50;;;;;;6275297;28;20119;-65
2020/12/20 00:44:37;;;;;;;7.90;5.72;;;20.20;43.50;;;;;;6275242;28;20113;-65
2020/12/20 00:47:37;;;;;;;7.65;5.68;;;20.30;43.50;;;;;;6275710;28;20387;-64
2020/12/20 00:50:38;;;;;;;7.40;5.75;;;20.20;43.40;;;;;;6275402;28;20125;-65
2020/12/20 00:53:38;;;;;;;7.93;6.30;;;20.20;43.50;;;;;;6275940;28;20037;-65
2020/12/20 00:56:39;;;;;;;6.97;5.20;;;20.20;43.50;;;;;;6278082;28;20028;-65
2020/12/20 00:59:39;;;;;;;8.23;5.63;;;20.20;43.50;;;;;;6278053;28;20070;-65
2020/12/20 01:02:41;;;;;;;7.35;5.18;;;20.20;43.50;;;;;;6286258;28;20071;-65
2020/12/20 01:05:41;;;;;;;6.75;5.15;;;20.20;43.50;;;;;;6284805;28;20119;-62
2020/12/20 01:08:42;;;;;;;7.63;5.40;;;20.20;43.60;;;;;;6290510;28;20076;-65
2020/12/20 01:11:43;;;;;;;7.72;5.60;;;20.20;43.50;;;;;;6277451;28;20060;-63
2020/12/20 01:14:43;;;;;;;6.22;4.97;;;20.20;44.30;;;;;;6275034;28;20070;-64
2020/12/20 01:17:44;;;;;;;6.78;5.20;;;20.20;43.60;;;;;;6272446;28;20032;-64
2020/12/20 01:20:44;;;;;;;6.55;5.10;;;20.20;43.50;;;;;;6271209;28;20025;-65
2020/12/20 01:23:45;;;;;;;6.90;5.28;;;20.20;43.60;;;;;;6270922;28;20040;-64
2020/12/20 01:26:45;;;;;;;6.28;4.85;;;20.20;43.60;;;;;;6270862;28;20036;-64
2020/12/20 01:29:46;;;;;;;5.97;4.53;;;20.20;43.60;;;;;;6271221;28;20033;-64
2020/12/20 01:32:46;;;;;;;6.20;4.95;;;20.20;43.60;;;;;;6251688;28;20033;-65
2020/12/20 01:35:47;;;;;;;5.72;4.40;;;20.20;43.60;;;;;;6245811;28;20025;-64
2020/12/20 01:38:47;;;;;;;6.78;5.13;;;20.20;43.60;;;;;;6244460;28;20099;-64
2020/12/20 01:41:51;;;;;;;5.80;4.35;;;20.20;43.60;;;;;;6245675;28;20036;-64
2020/12/20 01:44:52;;;;;;;6.43;4.68;;;20.20;43.60;;;;;;6245363;28;20025;-64
2020/12/20 01:47:53;;;;;;;5.68;4.53;;;20.20;43.60;;;;;;6245575;28;20476;-64
2020/12/20 01:50:53;;;;;;;5.35;4.35;;;20.20;43.60;;;;;;6244555;28;20021;-64
2020/12/20 01:53:54;;;;;;;6.10;4.70;;;20.20;44.30;;;;;;6245760;28;20017;-64
2020/12/20 01:56:54;;;;;;;5.50;4.35;;;20.20;43.70;;;;;;6245026;28;20601;-64
2020/12/20 01:59:56;;;;;;;6.03;4.60;;;20.20;43.60;;;;;;6245976;28;20025;-64
2020/12/20 02:02:56;;;;;;;5.25;4.43;;;20.10;43.60;;;;;;6244796;28;20029;-64
2020/12/20 02:05:57;;;;;;;4.72;3.95;;;20.20;43.80;;;;;;6245430;28;20034;-64
2020/12/20 02:08:57;;;;;;;5.32;4.55;;;20.20;43.70;;;;;;6245276;28;20036;-64
2020/12/20 02:12:02;;;;;;;6.10;4.57;;;20.20;43.70;;;;;;6245122;28;20330;-64
2020/12/20 02:15:03;;;;;;;;;;;20.10;43.60;;;;;;6246347;28;20045;-65
2020/12/20 02:18:03;;;;;;;6.22;4.45;;;20.10;43.60;;;;;;6244550;28;20319;-65
2020/12/20 02:21:21;;;;;;;6.43;4.10;;;20.10;43.70;;;;;;6244758;28;20060;-64
2020/12/20 02:24:22;;;;;;;5.60;4.13;;;20.10;43.70;;;;;;6255440;28;20027;-66
2020/12/20 02:27:22;;;;;;;5.68;4.03;;;20.10;43.70;;;;;;6269717;28;20029;-65
2020/12/20 02:30:22;;;;;;;5.13;4.03;;;20.10;43.60;;;;;;6268539;28;20029;-66
2020/12/20 02:33:23;;;;;;;4.57;3.72;;;20.10;43.70;;;;;;6269106;28;20057;-66
2020/12/20 02:36:23;;;;;;;5.10;3.85;;;20.10;43.80;;;;;;6269162;28;20124;-66
2020/12/20 02:39:24;;;;;;;4.20;3.72;;;20.10;43.70;;;;;;6269397;28;20029;-66
2020/12/20 02:42:24;;;;;;;5.75;4.00;;;20.10;43.80;;;;;;6269243;28;20029;-65
2020/12/20 02:45:25;;;;;;;4.40;3.70;;;20.10;43.70;;;;;;6269120;28;20391;-66
2020/12/20 02:48:25;;;;;;;4.93;3.88;;;20.10;43.70;;;;;;6269212;28;20082;-66
2020/12/20 02:51:27;;;;;;;4.47;3.47;;;20.10;43.70;;;;;;6268043;28;20032;-67
2020/12/20 02:54:27;;;;;;;5.20;3.92;;;20.10;43.80;;;;;;6268777;28;20029;-66
2020/12/20 02:57:28;;;;;;;4.50;3.58;;;20.10;43.80;;;;;;6268395;28;20025;-66
2020/12/20 03:00:28;;;;;;;4.40;3.55;;;20.10;43.80;;;;;;6268523;28;20021;-66
2020/12/20 03:03:29;;;;;;;5.00;3.55;;;20.10;43.80;;;;;;6268459;28;20032;-66
2020/12/20 03:06:29;;;;;;;4.55;3.30;;;20.10;43.80;;;;;;6268305;28;20017;-65
2020/12/20 03:09:30;;;;;;;4.85;3.78;;;20.10;43.80;;;;;;6268367;28;20032;-66
2020/12/20 03:12:31;;;;;;;4.28;3.25;;;20.10;43.80;;;;;;6268429;28;20380;-66
2020/12/20 03:15:32;;;;;;;3.53;3.00;;;20.10;43.80;;;;;;6268469;28;20017;-66
2020/12/20 03:18:32;;;;;;;4.40;3.28;;;20.10;43.80;;;;;;6268006;28;20078;-66
2020/12/20 03:21:33;;;;;;;4.13;3.15;;;20.10;43.80;;;;;;6268271;28;20025;-66
2020/12/20 03:24:33;;;;;;;3.70;3.13;;;20.10;43.80;;;;;;6268279;28;20025;-65
2020/12/20 03:27:34;;;;;;;4.85;3.65;;;20.10;43.90;;;;;;6267946;28;20029;-66
2020/12/20 03:30:34;;;;;;;4.65;3.40;;;20.10;43.80;;;;;;6267747;28;20037;-66
2020/12/20 03:33:35;;;;;;;4.15;3.40;;;20.10;43.80;;;;;;6267971;28;20299;-66
2020/12/20 03:36:35;;;;;;;3.67;3.05;;;20.10;43.80;;;;;;6267667;28;20053;-65
2020/12/20 03:39:36;;;;;;;3.50;2.95;;;20.10;43.90;;;;;;6267897;28;20025;-66
2020/12/20 03:42:37;;;;;;;3.28;2.75;;;20.10;43.90;;;;;;6244393;28;20061;-65
2020/12/20 03:45:38;;;;;;;3.88;3.10;;;20.10;43.90;;;;;;6241665;28;20021;-66
2020/12/20 03:48:38;;;;;;;4.47;3.38;;;20.00;43.80;;;;;;6242892;28;20442;-65
2020/12/20 03:51:39;;;;;;;4.00;3.15;;;20.10;43.90;;;;;;6242640;28;20337;-64
2020/12/20 03:54:39;;;;;;;3.33;2.78;;;20.10;43.80;;;;;;6243142;28;20560;-65
2020/12/20 03:57:40;;;;;;;4.15;3.20;;;20.00;43.80;;;;;;6242625;28;20025;-65
2020/12/20 04:00:40;;;;;;;4.55;3.38;;;20.00;43.80;;;;;;6242703;28;20034;-66
2020/12/20 04:03:41;;;;;;;3.35;2.88;;;20.00;43.80;;;;;;6242600;28;20075;-66
2020/12/20 04:06:41;;;;;;;3.65;2.88;;;20.10;43.90;;;;;;6242918;28;20552;-66
2020/12/20 04:09:43;;;;;;;3.65;3.13;;;20.00;43.80;;;;;;6242461;28;20041;-66
2020/12/20 04:12:43;;;;;;;4.03;3.08;;;20.10;43.90;;;;;;6242137;28;20068;-66
2020/12/20 04:15:44;;;;;;;3.85;2.85;;;20.10;43.90;;;;;;6243281;28;20045;-66
2020/12/20 04:18:44;;;;;;;2.83;2.50;;;20.00;43.80;;;;;;6242134;28;20026;-65
2020/12/20 04:21:45;;;;;;;3.60;2.83;;;20.00;43.90;;;;;;6242744;28;20124;-65
2020/12/20 04:24:45;;;;;;;3.05;2.40;;;20.00;43.90;;;;;;6242296;28;20061;-67
2020/12/20 04:27:48;;;;;;;3.50;2.58;;;20.00;43.90;;;;;;6242793;28;20056;-66
2020/12/20 04:30:51;;;;;;;3.65;2.78;;;20.00;44.00;;;;;;6241836;28;20025;-67
2020/12/20 04:33:51;;;;;;;3.60;2.92;;;20.00;43.90;;;;;;6252539;28;20098;-65
2020/12/20 04:36:52;;;;;;;2.95;2.30;;;20.10;44.00;;;;;;6267429;28;20022;-65
2020/12/20 04:39:52;;;;;;;3.63;2.60;;;20.00;43.90;;;;;;6266653;28;20474;-66
2020/12/20 04:43:04;;;;;;;4.07;2.72;;;20.00;43.90;;;;;;6267442;28;20449;-65
2020/12/20 04:46:05;;;;;;;3.25;2.40;;;20.00;43.80;;;;;;6265246;28;20067;-66
2020/12/20 04:49:07;;;;;;;3.33;2.65;;;20.00;43.90;;;;;;6267331;28;20549;-66
2020/12/20 04:52:09;;;;;;;2.67;2.30;;;20.00;44.10;;;;;;6266389;28;20106;-66
2020/12/20 04:55:11;;;;;;;2.97;2.45;;;20.00;43.90;;;;;;6271578;28;20029;-66
2020/12/20 04:58:11;;;;;;;3.33;2.70;;;20.00;44.00;;;;;;6271314;28;20044;-65
2020/12/20 05:01:12;;;;;;;3.42;2.75;;;20.00;44.00;;;;;;6271040;28;20024;-65
2020/12/20 05:04:13;;;;;;;3.13;2.50;;;20.00;44.00;;;;;;6271357;28;20021;-66
2020/12/20 05:07:14;;;;;;;2.78;2.30;;;20.00;44.00;;;;;;6271247;28;20024;-66
2020/12/20 05:10:14;;;;;;;3.05;2.40;;;20.00;43.80;;;;;;6271077;28;20091;-66
2020/12/20 05:13:15;;;;;;;2.75;2.05;;;20.00;43.70;;;;;;6270891;28;20108;-66
2020/12/20 05:16:31;;;;;;;2.90;2.35;;;20.10;43.80;;;;;;6271176;28;20033;-65
2020/12/20 05:19:32;;;;;;;2.58;2.10;;;20.10;43.90;;;;;;6271078;28;20028;-66
2020/12/20 05:22:33;;;;;;;2.80;2.08;;;20.10;43.80;;;;;;6270807;28;20037;-66
2020/12/20 05:25:35;;;;;;;3.00;2.35;;;20.10;43.80;;;;;;6271342;28;20048;-66
2020/12/20 05:28:36;;;;;;;3.25;2.13;;;20.10;43.90;;;;;;6270876;28;20025;-66
2020/12/20 05:31:37;;;;;;;3.65;2.20;;;20.10;43.90;;;;;;6270847;28;20353;-66
2020/12/20 05:34:37;;;;;;;2.30;2.00;;;20.20;44.00;;;;;;6270972;28;20380;-66
2020/12/20 05:37:39;;;;;;;3.78;2.50;;;20.20;44.00;;;;;;6258654;28;20018;-66
2020/12/20 05:40:39;;;;;;;3.13;2.20;;;20.20;44.00;;;;;;6252901;28;20037;-66
2020/12/20 05:43:40;;;;;;;2.92;2.25;;;20.20;44.10;;;;;;6270267;28;20113;-66
2020/12/20 05:46:42;;;;;;;2.50;2.25;;;20.20;44.10;;;;;;6270768;28;20091;-66
2020/12/20 05:49:42;;;;;;;2.25;2.05;;;20.20;44.10;;;;;;6270620;28;20388;-66
2020/12/20 05:52:58;;;;;;;3.05;2.17;;;20.20;44.10;;;;;;6269790;28;20075;-66
2020/12/20 05:55:59;;;;;;;;;;;20.20;44.10;;;;;;6270934;28;20061;-67
2020/12/20 05:59:00;;;;;;;2.40;2.00;;;20.20;44.10;;;;;;6268255;28;19909;-65
2020/12/20 06:02:04;;;;;;;2.22;2.03;;;20.20;44.20;;;;;;6270448;28;20028;-66
2020/12/20 06:05:05;;;;;;;2.40;2.20;;;20.20;44.10;;;;;;6269162;28;20063;-66
2020/12/20 06:08:08;;;;;;;2.25;2.00;;;20.20;44.20;;;;;;6268662;28;20479;-66
2020/12/20 06:11:13;;;;;;;3.25;2.53;;;20.20;44.20;;;;;;6269351;28;20086;-66
2020/12/20 06:14:18;;;;;;;2.20;1.90;;;20.20;44.20;;;;;;6269759;28;20506;-66
2020/12/20 06:17:24;;;;;;;2.50;2.20;;;20.20;44.20;;;;;;6270015;28;20021;-65
2020/12/20 06:20:30;;;;;;;2.88;2.33;;;20.20;44.20;;;;;;6269276;28;20424;-66
2020/12/20 06:23:32;;;;;;;2.58;2.13;;;20.20;44.20;;;;;;6269625;28;20098;-66
2020/12/20 06:26:33;;;;;;;2.20;1.92;;;20.20;44.20;;;;;;6269596;28;20094;-66
2020/12/20 06:29:34;;;;;;;2.83;2.15;;;20.20;44.30;;;;;;6269824;28;20521;-66
2020/12/20 06:32:41;;;;;;;2.63;2.05;;;20.20;44.20;;;;;;6269887;28;20017;-67
2020/12/20 06:35:41;;;;;;;2.75;2.30;;;20.20;44.30;;;;;;6270314;28;20029;-66
2020/12/20 06:38:52;;;;;;;2.25;1.95;;;20.20;44.20;;;;;;6270057;28;20017;-67
2020/12/20 06:41:52;;;;;;;2.88;2.10;;;20.20;44.30;;;;;;6269609;28;20028;-67
2020/12/20 06:45:30;;;;;;;2.25;1.90;;;20.20;44.30;;;;;;6269517;28;20443;-67
2020/12/20 06:48:39;;;;;;;2.78;2.00;;;20.20;44.30;;;;;;6241759;28;20033;-66
2020/12/20 06:51:39;;;;;;;2.00;1.80;;;20.20;44.30;;;;;;6264875;28;20037;-66
2020/12/20 06:54:40;;;;;;;2.65;2.08;;;20.20;44.30;;;;;;6244219;28;20408;-66
2020/12/20 06:58:02;;;;;;;2.33;1.95;;;20.20;44.30;;;;;;6244239;28;20446;-66
2020/12/20 07:01:03;;;;;;;2.28;1.85;;;20.10;44.20;;;;;;6243630;28;20052;-66
2020/12/20 07:04:06;;;;;;;1.85;1.55;;;20.10;44.30;;;;;;6244324;28;20021;-65
2020/12/20 07:07:08;;;;;;;2.05;1.77;;;20.10;44.30;;;;;;6243411;28;20018;-66
2020/12/20 07:10:45;;;;;;;2.65;2.08;;;20.20;44.30;;;;;;6242562;28;20034;-65
2020/12/20 07:13:47;;;;;;;2.90;2.05;;;20.10;44.30;;;;;;6243619;28;20025;-66
2020/12/20 07:16:48;;;;;;;2.10;1.70;;;20.10;44.30;;;;;;6242961;28;20029;-66
2020/12/20 07:20:08;;;;;;;2.40;1.95;;;20.10;44.40;;;;;;6243279;28;20037;-66
2020/12/20 07:23:09;;;;;;;2.65;2.13;;;20.10;44.40;;;;;;6243518;28;20333;-66
2020/12/20 07:26:10;;;;;;;2.70;2.20;;;20.10;44.30;;;;;;6243273;28;20547;-65
2020/12/20 07:29:11;;;;;;;2.22;1.88;;;20.10;44.40;;;;;;6243502;28;20030;-65
2020/12/20 07:32:11;;;;;;;2.58;1.90;;;20.10;44.40;;;;;;6243335;28;20021;-66
2020/12/20 07:35:13;;;;;;;2.22;1.92;;;20.10;44.40;;;;;;6243499;28;20427;-65
2020/12/20 07:38:14;;;;;;;2.78;2.10;;;20.10;44.30;;;;;;6242888;28;20043;-66
2020/12/20 07:41:17;;;;;;;2.38;2.00;;;20.10;44.30;;;;;;6243310;28;20021;-65
2020/12/20 07:44:18;;;;;;;2.83;1.77;;;20.10;44.40;;;;;;6243163;28;20041;-66
2020/12/20 07:47:18;;;;;;;2.72;1.92;;;20.10;44.30;;;;;;6243809;28;20025;-65
2020/12/20 07:50:22;;;;;;;2.63;1.80;;;20.10;44.30;;;;;;6244043;28;20363;-66
2020/12/20 07:53:23;;;;;;;3.08;2.20;;;20.10;44.30;;;;;;6267081;28;20029;-66
2020/12/20 07:56:34;;;;;;;3.38;2.20;;;20.10;44.40;;;;;;6268275;28;20440;-66
2020/12/20 07:59:35;;;;;;;2.65;2.05;;;20.10;44.30;;;;;;6270585;28;20021;-66
2020/12/20 08:02:35;;;;;;;2.47;2.10;;;20.10;44.40;;;;;;6283760;28;20492;-66
2020/12/20 08:05:36;;;;;;;2.90;2.17;;;20.10;44.40;;;;;;6275064;28;20476;-66
2020/12/20 08:08:38;;;;;;;2.33;1.90;;;20.10;44.40;;;;;;6267773;28;20044;-66
2020/12/20 08:11:39;;;;;;;2.78;2.15;;;20.10;44.40;;;;;;6266982;28;20029;-67
2020/12/20 08:14:40;;;;;;;2.58;2.00;;;20.10;44.40;;;;;;6268002;28;20113;-65
2020/12/20 08:17:41;;;;;;;2.90;2.30;;;20.10;44.40;;;;;;6267664;28;20529;-66
2020/12/20 08:20:42;;;;;;;2.35;1.88;;;20.10;44.40;;;;;;6266707;28;20025;-64
2020/12/20 08:23:42;;;;;;;2.45;1.90;;;20.10;44.40;;;;;;6267937;28;20542;-65
2020/12/20 08:26:44;;;;;;;2.83;2.20;;;20.10;44.40;;;;;;6266635;28;20419;-65
2020/12/20 08:29:50;;;;;;;2.60;2.13;;;20.10;44.40;;;;;;6272342;28;20195;-66
2020/12/20 08:32:50;;;;;;;2.72;2.22;;;20.10;44.40;;;;;;6271565;28;20436;-64
2020/12/20 08:36:00;;;;;;;2.15;1.95;;;20.10;44.40;;;;;;6271970;28;20468;-65
2020/12/20 08:39:03;;;;;;;2.53;2.00;;;20.10;44.50;;;;;;6271968;28;20021;-65
2020/12/20 08:42:08;;;;;;;2.75;2.20;;;20.10;44.50;;;;;;6271355;28;20036;-64
2020/12/20 08:45:14;;;;;;;3.22;2.17;;;20.10;44.50;;;;;;6271766;28;20021;-64
2020/12/20 08:48:20;;;;;;;2.35;1.92;;;20.10;44.40;;;;;;6271459;28;20037;-65
2020/12/20 08:51:23;;;;;;;2.50;2.05;;;20.10;44.50;;;;;;6271633;28;20032;-65
2020/12/20 08:54:26;;;;;;;2.78;2.30;;;20.10;44.50;;;;;;6261487;28;20538;-65
2020/12/20 08:57:28;;;;;;;3.08;2.25;;;20.10;44.50;;;;;;6247022;28;20027;-65
2020/12/20 09:00:28;;;;;;;2.42;1.90;;;20.10;44.50;;;;;;6246416;28;20021;-64
2020/12/20 09:03:29;;;;;;;2.22;1.90;;;20.10;44.50;;;;;;6246595;28;20099;-65
2020/12/20 09:06:29;;;;;;;2.67;2.10;;;20.10;44.50;;;;;;6246417;28;20061;-65
2020/12/20 09:09:30;;;;;;;2.03;1.73;;;20.10;44.60;;;;;;6246691;28;20034;-66
2020/12/20 09:12:31;;;;;;;2.40;1.98;;;20.20;44.30;;;;;;6246015;28;20056;-64
2020/12/20 09:15:53;;;;;;;2.50;2.03;;;20.30;44.30;;;;;;6246319;28;20018;-65
2020/12/20 09:18:54;;;;;;;3.13;2.20;;;20.30;44.00;;;;;;6246000;28;20112;-66
2020/12/20 09:21:54;;;;;;;2.75;2.10;;;20.40;44.00;;;;;;6246801;28;20035;-65
2020/12/20 09:24:55;;;;;;;2.40;1.90;;;20.40;44.00;;;;;;6246433;28;20152;-66
2020/12/20 09:28:01;;;;;;;2.20;1.83;;;20.50;44.10;;;;;;6246256;28;20492;-65
2020/12/20 09:31:11;;;;;;;2.22;1.83;;;20.50;44.00;;;;;;6246260;28;20036;-65
2020/12/20 09:34:12;;;;;;;2.72;1.90;;;20.60;44.10;;;;;;6246248;28;20276;-64
2020/12/20 09:37:12;;;;;;;2.20;1.67;;;20.60;44.00;;;;;;6246227;28;20032;-64
2020/12/20 09:40:13;;;;;;;3.10;2.20;;;20.60;44.00;;;;;;6245101;28;20025;-66
2020/12/20 09:43:18;;;;;;;2.58;2.10;;;20.60;44.00;;;;;;6246448;28;20040;-66
2020/12/20 09:46:22;;;;;;;2.10;1.90;;;20.70;44.10;;;;;;6246045;28;20431;-65
2020/12/20 09:49:22;;;;;;;2.43;2.10;;;20.70;44.00;;;;;;6257242;28;20120;-65
2020/12/20 09:52:23;;;;;;;2.63;2.22;;;20.70;44.10;;;;;;6269860;28;20297;-65
2020/12/20 09:55:24;;;;;;;2.72;1.73;;;20.70;44.00;;;;;;6270269;28;20082;-64
2020/12/20 09:58:25;;;;;;;2.30;2.00;;;20.80;44.10;;;;;;6270280;28;20040;-65
2020/12/20 10:01:25;;;;;;;2.47;2.17;;;20.80;44.00;;;;;;6269951;28;20100;-66
2020/12/20 10:04:26;;;;;;;2.13;1.92;;;20.80;44.00;;;;;;6269650;28;20352;-65
2020/12/20 10:07:26;;;;;;;2.53;2.15;;;20.80;44.00;;;;;;6270186;28;20029;-64
2020/12/20 10:10:27;;;;;;;2.17;1.80;;;20.80;44.00;;;;;;6268896;28;20040;-64
2020/12/20 10:13:27;;;;;;;2.75;2.22;;;20.80;43.90;;;;;;6270385;28;20048;-65
2020/12/20 10:16:28;;;;;;;3.20;2.28;;;20.80;44.00;;;;;;6269623;28;20021;-65
2020/12/20 10:19:29;;;;;;;2.08;1.85;;;20.80;44.00;;;;;;6269513;28;20472;-64
2020/12/20 10:22:29;;;;;;;2.10;1.83;;;20.80;44.10;;;;;;6269285;28;20025;-65
2020/12/20 10:25:30;;;;;;;2.40;2.20;;;20.80;44.10;;;;;;6268988;28;20033;-64
2020/12/20 10:28:30;;;;;;;2.58;1.95;;;20.80;44.00;;;;;;6268979;28;20033;-64
2020/12/20 10:31:31;;;;;;;2.42;1.70;;;20.80;44.00;;;;;;6268383;28;20434;-64
2020/12/20 10:34:31;;;;;;;18.20;3.70;;;20.90;44.10;;;;;;6247345;28;20633;-64
2020/12/20 10:37:32;;;;;;;21.20;6.93;;;20.70;42.90;;;;;;6237425;28;20491;-68
2020/12/20 10:40:33;;;;;;;16.52;7.50;;;20.60;40.60;;;;;;6240895;28;20034;-66
2020/12/20 10:43:33;;;;;;;11.07;6.00;;;20.60;40.70;;;;;;6242611;28;20026;-66
2020/12/20 10:46:34;;;;;;;9.05;6.68;;;20.70;40.80;;;;;;6239166;28;20056;-64
2020/12/20 10:49:35;;;;;;;8.35;5.28;;;20.80;40.40;;;;;;6244279;28;20036;-67
2020/12/20 10:52:36;;;;;;;8.57;5.97;;;21.00;40.80;;;;;;6260521;28;20098;-62
2020/12/20 10:55:36;;;;;;;13.02;7.93;;;21.00;39.60;;;;;;6266679;28;20079;-63
2020/12/20 10:58:37;;;;;;;13.27;9.13;;;20.70;36.70;;;;;;6266534;28;20365;-63
2020/12/20 11:01:37;;;;;;;14.50;9.73;;;20.50;36.30;;;;;;6254934;28;20437;-64
2020/12/20 11:04:38;;;;;;;13.20;9.07;;;20.40;35.40;;;;;;6266372;28;20423;-63
2020/12/20 11:07:38;;;;;;;13.32;9.45;;;20.30;35.00;;;;;;6255700;28;20030;-63
2020/12/20 11:10:38;;;;;;;13.27;9.23;;;20.30;34.80;;;;;;6247043;28;20040;-63
2020/12/20 11:13:42;;;;;;;12.38;8.27;;;20.30;34.40;;;;;;6247477;28;20037;-64
2020/12/20 11:16:42;;;;;;;10.43;7.03;;;20.40;36.30;;;;;;6253044;28;20090;-65
2020/12/20 11:19:43;;;;;;;10.25;6.97;;;20.70;37.70;;;;;;6266076;28;20021;-67
2020/12/20 11:22:43;;;;;;;9.45;6.93;;;20.90;38.40;;;;;;6249750;28;20130;-64
2020/12/20 11:25:44;;;;;;;8.50;6.07;;;21.00;38.40;;;;;;6239506;28;20037;-66
2020/12/20 11:28:46;;;;;;;7.55;5.60;;;21.00;38.60;;;;;;6247891;28;20033;-63
2020/12/20 11:31:47;;;;;;;8.38;5.28;;;21.00;39.00;;;;;;6240140;28;20064;-64
2020/12/20 11:34:48;;;;;;;8.02;5.47;;;21.00;39.10;;;;;;6240699;28;20569;-65
2020/12/20 11:37:48;;;;;;;11.18;5.43;;;21.10;39.60;;;;;;6239430;28;20026;-64
2020/12/20 11:40:49;;;;;;;8.82;5.30;;;21.10;39.70;;;;;;6258111;28;20036;-63
2020/12/20 11:43:51;;;;;;;8.35;5.40;;;21.10;39.90;;;;;;6265398;28;20037;-64
2020/12/20 11:46:51;;;;;;;10.20;5.60;;;21.10;40.00;;;;;;6264961;28;20021;-64
2020/12/20 11:49:52;;;;;;;6.75;4.85;;;21.20;40.20;;;;;;6240570;28;20092;-64
2020/12/20 11:52:52;;;;;;;8.10;5.22;;;21.10;40.30;;;;;;6250031;28;20022;-64
2020/12/20 11:55:53;;;;;;;6.78;4.90;;;21.20;40.80;;;;;;6240223;28;20028;-65
2020/12/20 11:58:53;;;;;;;13.02;5.18;;;21.20;40.80;;;;;;6253371;28;20474;-64
2020/12/20 12:01:59;;;;;;;12.90;6.32;;;21.20;40.90;;;;;;6264838;28;20064;-64
2020/12/20 12:04:59;;;;;;;11.88;5.20;;;21.20;40.90;;;;;;6250699;28;20036;-64
2020/12/20 12:08:00;;;;;;;9.75;5.45;;;21.20;40.90;;;;;;6242748;28;20104;-63
2020/12/20 12:11:01;;;;;;;11.30;5.85;;;21.20;41.10;;;;;;6240669;28;20044;-63
2020/12/20 12:14:02;;;;;;;13.30;6.25;;;21.20;41.20;;;;;;6252690;28;20025;-63
2020/12/20 12:17:02;;;;;;;13.13;5.70;;;21.30;41.60;;;;;;6247740;28;20036;-63
2020/12/20 12:20:03;;;;;;;14.40;6.45;;;21.20;41.10;;;;;;6266676;28;20028;-64
2020/12/20 12:23:04;;;;;;;19.15;6.63;;;21.20;41.50;;;;;;6265636;28;20147;-63
2020/12/20 12:26:06;;;;;;;14.43;5.88;;;21.30;41.60;;;;;;6265265;28;20032;-65
2020/12/20 12:29:06;;;;;;;18.98;7.03;;;21.30;41.50;;;;;;6256979;28;20026;-64
2020/12/20 12:32:07;;;;;;;19.85;6.57;;;21.30;41.90;;;;;;6245693;28;20100;-63
2020/12/20 12:35:08;;;;;;;27.75;8.55;;;21.30;41.70;;;;;;6264725;28;20071;-63
2020/12/20 12:38:09;;;;;;;25.38;8.32;;;21.30;42.30;;;;;;6245269;28;20586;-63
2020/12/20 12:41:09;;;;;;;20.33;7.32;;;21.30;42.40;;;;;;6245832;28;20029;-63
2020/12/20 12:44:10;;;;;;;21.90;7.03;;;21.20;42.20;;;;;;6249717;28;20025;-63
2020/12/20 12:47:11;;;;;;;19.00;6.47;;;21.30;42.30;;;;;;6239583;28;20029;-64
2020/12/20 12:50:11;;;;;;;21.38;8.18;;;21.30;42.10;;;;;;6239902;28;20028;-63
2020/12/20 12:53:12;;;;;;;16.35;6.85;;;21.30;42.30;;;;;;6243341;28;20095;-63
2020/12/20 12:56:12;;;;;;;17.27;7.07;;;21.30;42.20;;;;;;6264613;28;20413;-64
2020/12/20 12:59:14;;;;;;;19.90;7.03;;;21.30;42.50;;;;;;6259999;28;20101;-63
2020/12/20 13:02:14;;;;;;;18.45;6.28;;;21.30;42.30;;;;;;6239997;28;20064;-63
2020/12/20 13:05:15;;;;;;;18.02;6.80;;;21.30;42.50;;;;;;6239750;28;20030;-64
2020/12/20 13:08:15;;;;;;;22.27;6.78;;;21.30;42.50;;;;;;6238992;28;20060;-64
2020/12/20 13:11:25;;;;;;;18.42;7.00;;;21.30;42.50;;;;;;6239992;28;20032;-63
2020/12/20 13:14:26;;;;;;;21.10;6.88;;;21.30;42.30;;;;;;6246376;28;20022;-63
2020/12/20 13:17:26;;;;;;;20.65;6.85;;;21.30;42.50;;;;;;6242607;28;20468;-63
2020/12/20 13:20:26;;;;;;;18.25;6.03;;;21.30;42.60;;;;;;6246829;28;20097;-61
2020/12/20 13:23:27;;;;;;;14.18;6.30;;;21.30;42.20;;;;;;6244729;28;20024;-63
2020/12/20 13:26:29;;;;;;;97.70;10.88;;;21.30;42.00;;;;;;6259893;28;20028;-64
2020/12/20 13:29:29;;;;;;;70.85;10.73;;;21.30;42.60;;;;;;6243586;28;20029;-64
2020/12/20 13:32:30;;;;;;;54.85;7.90;;;21.40;42.40;;;;;;6265427;28;20017;-69
2020/12/20 13:35:30;;;;;;;47.72;8.80;;;21.50;41.90;;;;;;6266631;28;20018;-64
2020/12/20 13:38:31;;;;;;;58.20;8.80;;;21.50;41.90;;;;;;6261334;28;20039;-62
2020/12/20 13:41:31;;;;;;;50.20;9.82;;;21.40;42.10;;;;;;6267969;28;20092;-62
2020/12/20 13:44:32;;;;;;;42.53;9.07;;;21.50;42.40;;;;;;6267621;28;20017;-59
2020/12/20 13:47:32;;;;;;;50.83;8.13;;;21.50;42.30;;;;;;6267452;28;20155;-63
2020/12/20 13:50:33;;;;;;;44.80;8.63;;;21.50;42.40;;;;;;6261181;28;20331;-61
2020/12/20 13:53:34;;;;;;;39.90;10.40;;;21.50;42.10;;;;;;6246963;28;20033;-63
2020/12/20 13:56:34;;;;;;;43.90;9.70;;;21.70;42.20;;;;;;6251487;28;20518;-64
2020/12/20 13:59:35;;;;;;;27.52;9.70;;;21.70;41.60;;;;;;6241688;28;20026;-64
2020/12/20 14:02:35;;;;;;;33.53;10.43;;;21.70;42.70;;;;;;6235673;28;20034;-63
2020/12/20 14:05:36;;;;;;;31.15;10.68;;;21.70;42.20;;;;;;6238656;28;20032;-63
2020/12/20 14:08:36;;;;;;;34.92;9.32;;;21.80;41.60;;;;;;6249492;28;20055;-65
2020/12/20 14:11:37;;;;;;;31.17;9.85;;;21.80;41.20;;;;;;6235766;28;20095;-63
2020/12/20 14:14:37;;;;;;;31.70;10.07;;;21.80;41.40;;;;;;6228296;28;20036;-62
2020/12/20 14:17:38;;;;;;;28.00;9.07;;;21.90;41.70;;;;;;6246950;28;20021;-63
2020/12/20 14:20:39;;;;;;;55.60;9.63;;;21.90;41.70;;;;;;6254726;28;20094;-63
2020/12/20 14:23:40;;;;;;;32.92;9.80;;;21.90;41.70;;;;;;6267575;28;20036;-64
2020/12/20 14:26:41;;;;;;;29.45;8.98;;;22.00;42.40;;;;;;6260320;28;20112;-62
2020/12/20 14:29:41;;;;;;;25.67;8.52;;;22.00;41.60;;;;;;6240704;28;20044;-64
2020/12/20 14:32:47;;;;;;;32.70;9.23;;;22.10;41.50;;;;;;6251774;28;20083;-62
2020/12/20 14:35:49;;;;;;;27.30;8.85;;;22.10;42.00;;;;;;6263172;28;20021;-63
2020/12/20 14:38:49;;;;;;;24.95;8.57;;;22.00;41.70;;;;;;6243891;28;20179;-63
2020/12/20 14:41:50;;;;;;;38.60;9.52;;;21.90;41.90;;;;;;6242037;28;20034;-60
2020/12/20 14:44:52;;;;;;;22.85;8.65;;;22.20;42.40;;;;;;6250080;28;20554;-59
2020/12/20 14:47:52;;;;;;;36.72;8.57;;;22.20;41.90;;;;;;6265809;28;20024;-58
2020/12/20 14:50:53;;;;;;;34.83;8.43;;;22.30;42.10;;;;;;6250514;28;20029;-65
2020/12/20 14:53:54;;;;;;;24.88;8.90;;;22.30;42.00;;;;;;6266193;28;20104;-62
2020/12/20 14:56:54;;;;;;;27.17;9.32;;;22.30;41.90;;;;;;6249423;28;20067;-64
2020/12/20 14:59:55;;;;;;;34.42;8.70;;;22.30;41.70;;;;;;6262236;28;20032;-63
2020/12/20 15:02:56;;;;;;;21.35;7.45;;;22.20;41.50;;;;;;6241038;28;20087;-65
2020/12/20 15:05:56;;;;;;;26.60;8.68;;;22.30;41.60;;;;;;6241192;28;20029;-60
2020/12/20 15:08:57;;;;;;;22.10;7.40;;;22.40;41.30;;;;;;6244150;28;20033;-66
2020/12/20 15:11:58;;;;;;;24.88;8.75;;;22.40;41.20;;;;;;6263478;28;20080;-65
2020/12/20 15:14:58;;;;;;;23.73;8.52;;;22.30;41.10;;;;;;6261004;28;20106;-64
2020/12/20 15:17:59;;;;;;;20.38;8.25;;;22.40;41.00;;;;;;6265330;28;20234;-64
2020/12/20 15:20:59;;;;;;;18.98;7.55;;;22.40;41.00;;;;;;6254484;28;20037;-65
2020/12/20 15:24:00;;;;;;;18.15;8.05;;;22.40;41.10;;;;;;6258955;28;20025;-66
2020/12/20 15:27:00;;;;;;;22.23;9.38;;;22.40;41.00;;;;;;6246363;28;20030;-66
2020/12/20 15:30:02;;;;;;;25.77;10.00;;;22.40;41.30;;;;;;6241670;28;20029;-61
2020/12/20 15:33:02;;;;;;;33.58;12.48;;;22.20;41.50;;;;;;6241538;28;20024;-64
2020/12/20 15:36:03;;;;;;;21.67;10.57;;;22.20;41.50;;;;;;6251085;28;20025;-67
2020/12/20 15:39:04;;;;;;;24.83;11.15;;;22.40;41.10;;;;;;6245112;28;20056;-66
2020/12/20 15:42:06;;;;;;;23.55;10.70;;;22.40;41.00;;;;;;6240792;28;20025;-65